sensor_id;sensor_type;location;lat;lon;timestamp;temperature;humidity
17992;DHT22;9121;50.926;5.340;2022-09-09T00:02:19;16.80;99.90
17992;DHT22;9121;50.926;5.340;2022-09-09T00:04:55;16.80;99.90
17992;DHT22;9121;50.926;5.340;2022-09-09T00:07:35;16.80;99.90
17992;DHT22;9121;50.926;5.340;2022-09-09T00:10:17;16.80;99.90
17992;DHT22;9121;50.926;5.340;2022-09-09T00:12:52;16.80;99.90
17992;DHT22;9121;50.926;5.340;2022-09-09T00:15:25;16.80;99.90
17992;DHT22;9121;50.926;5.340;2022-09-09T00:17:56;16.80;99.90
17992;DHT22;9121;50.926;5.340;2022-09-09T00:20:29;16.80;99.90
17992;DHT22;9121;50.926;5.340;2022-09-09T00:23:05;16.80;99.90
17992;DHT22;9121;50.926;5.340;2022-09-09T00:25:44;16.80;99.90
17992;DHT22;9121;50.926;5.340;2022-09-09T00:28:18;16.80;99.90
17992;DHT22;9121;50.926;5.340;2022-09-09T00:30:45;16.70;99.90
17992;DHT22;9121;50.926;5.340;2022-09-09T00:33:19;16.70;99.90
17992;DHT22;9121;50.926;5.340;2022-09-09T00:35:50;16.70;99.90
17992;DHT22;9121;50.926;5.340;2022-09-09T00:38:23;16.70;99.90
17992;DHT22;9121;50.926;5.340;2022-09-09T00:40:52;16.60;99.90
17992;DHT22;9121;50.926;5.340;2022-09-09T00:43:28;16.60;99.90
17992;DHT22;9121;50.926;5.340;2022-09-09T00:46:17;16.60;99.90
17992;DHT22;9121;50.926;5.340;2022-09-09T00:48:52;16.60;99.90
17992;DHT22;9121;50.926;5.340;2022-09-09T00:51:28;16.60;99.90
17992;DHT22;9121;50.926;5.340;2022-09-09T00:54:12;16.60;99.90
17992;DHT22;9121;50.926;5.340;2022-09-09T00:56:47;16.60;99.90
17992;DHT22;9121;50.926;5.340;2022-09-09T00:59:27;16.50;99.90
17992;DHT22;9121;50.926;5.340;2022-09-09T01:01:55;16.40;99.90
17992;DHT22;9121;50.926;5.340;2022-09-09T01:04:27;16.40;99.90
17992;DHT22;9121;50.926;5.340;2022-09-09T01:07:01;16.40;99.90
17992;DHT22;9121;50.926;5.340;2022-09-09T01:09:34;16.40;99.90
17992;DHT22;9121;50.926;5.340;2022-09-09T01:12:13;16.40;99.90
17992;DHT22;9121;50.926;5.340;2022-09-09T01:14:44;16.40;99.90
17992;DHT22;9121;50.926;5.340;2022-09-09T01:17:19;16.40;99.90
17992;DHT22;9121;50.926;5.340;2022-09-09T01:19:59;16.40;99.90
17992;DHT22;9121;50.926;5.340;2022-09-09T01:22:34;16.40;99.90
17992;DHT22;9121;50.926;5.340;2022-09-09T01:25:22;16.30;99.90
17992;DHT22;9121;50.926;5.340;2022-09-09T01:27:55;16.40;99.90
17992;DHT22;9121;50.926;5.340;2022-09-09T01:30:23;16.40;99.90
17992;DHT22;9121;50.926;5.340;2022-09-09T01:32:53;16.40;99.90
17992;DHT22;9121;50.926;5.340;2022-09-09T01:35:36;16.40;99.90
17992;DHT22;9121;50.926;5.340;2022-09-09T01:38:05;16.40;99.90
17992;DHT22;9121;50.926;5.340;2022-09-09T01:40:33;16.40;99.90
17992;DHT22;9121;50.926;5.340;2022-09-09T01:43:02;16.40;99.90
17992;DHT22;9121;50.926;5.340;2022-09-09T01:45:30;16.30;99.90
17992;DHT22;9121;50.926;5.340;2022-09-09T01:47:58;16.30;99.90
17992;DHT22;9121;50.926;5.340;2022-09-09T01:50:28;16.40;99.90
17992;DHT22;9121;50.926;5.340;2022-09-09T01:52:59;16.30;99.90
17992;DHT22;9121;50.926;5.340;2022-09-09T01:55:30;16.30;99.90
17992;DHT22;9121;50.926;5.340;2022-09-09T01:58:14;16.40;99.90
17992;DHT22;9121;50.926;5.340;2022-09-09T02:00:49;16.40;99.90
17992;DHT22;9121;50.926;5.340;2022-09-09T02:03:23;16.50;99.90
17992;DHT22;9121;50.926;5.340;2022-09-09T02:05:58;16.50;99.90
17992;DHT22;9121;50.926;5.340;2022-09-09T02:08:35;16.50;99.90
17992;DHT22;9121;50.926;5.340;2022-09-09T02:11:07;16.50;99.90
17992;DHT22;9121;50.926;5.340;2022-09-09T02:13:37;16.50;99.90
17992;DHT22;9121;50.926;5.340;2022-09-09T02:16:08;16.50;99.90
17992;DHT22;9121;50.926;5.340;2022-09-09T02:18:39;16.50;99.90
17992;DHT22;9121;50.926;5.340;2022-09-09T02:21:10;16.60;99.90
17992;DHT22;9121;50.926;5.340;2022-09-09T02:23:40;16.60;99.90
17992;DHT22;9121;50.926;5.340;2022-09-09T02:26:09;16.60;99.90
17992;DHT22;9121;50.926;5.340;2022-09-09T02:28:40;16.60;99.90
17992;DHT22;9121;50.926;5.340;2022-09-09T02:31:08;16.60;99.90
17992;DHT22;9121;50.926;5.340;2022-09-09T02:33:38;16.60;99.90
17992;DHT22;9121;50.926;5.340;2022-09-09T02:36:08;16.50;99.90
17992;DHT22;9121;50.926;5.340;2022-09-09T02:38:40;16.60;99.90
17992;DHT22;9121;50.926;5.340;2022-09-09T02:41:09;16.50;99.90
17992;DHT22;9121;50.926;5.340;2022-09-09T02:43:40;16.60;99.90
17992;DHT22;9121;50.926;5.340;2022-09-09T02:46:20;16.60;99.90
17992;DHT22;9121;50.926;5.340;2022-09-09T02:48:55;16.60;99.90
17992;DHT22;9121;50.926;5.340;2022-09-09T02:51:35;16.60;99.90
17992;DHT22;9121;50.926;5.340;2022-09-09T02:54:10;16.60;99.90
17992;DHT22;9121;50.926;5.340;2022-09-09T02:56:44;16.50;99.90
17992;DHT22;9121;50.926;5.340;2022-09-09T02:59:14;16.50;99.90
17992;DHT22;9121;50.926;5.340;2022-09-09T03:01:40;16.60;99.90
17992;DHT22;9121;50.926;5.340;2022-09-09T03:04:10;16.60;99.90
17992;DHT22;9121;50.926;5.340;2022-09-09T03:06:37;16.50;99.90
17992;DHT22;9121;50.926;5.340;2022-09-09T03:09:04;16.60;99.90
17992;DHT22;9121;50.926;5.340;2022-09-09T03:11:31;16.60;99.90
17992;DHT22;9121;50.926;5.340;2022-09-09T03:13:58;16.50;99.90
17992;DHT22;9121;50.926;5.340;2022-09-09T03:16:26;16.60;99.90
17992;DHT22;9121;50.926;5.340;2022-09-09T03:18:56;16.60;99.90
17992;DHT22;9121;50.926;5.340;2022-09-09T03:21:23;16.60;99.90
17992;DHT22;9121;50.926;5.340;2022-09-09T03:23:50;16.60;99.90
17992;DHT22;9121;50.926;5.340;2022-09-09T03:26:17;16.60;99.90
17992;DHT22;9121;50.926;5.340;2022-09-09T03:28:44;16.60;99.90
17992;DHT22;9121;50.926;5.340;2022-09-09T03:31:11;16.70;99.90
17992;DHT22;9121;50.926;5.340;2022-09-09T03:33:41;16.70;99.90
17992;DHT22;9121;50.926;5.340;2022-09-09T03:36:08;16.70;99.90
17992;DHT22;9121;50.926;5.340;2022-09-09T03:38:39;16.80;99.90
17992;DHT22;9121;50.926;5.340;2022-09-09T03:41:06;16.80;99.90
17992;DHT22;9121;50.926;5.340;2022-09-09T03:43:33;16.90;99.90
17992;DHT22;9121;50.926;5.340;2022-09-09T03:46:01;16.90;99.90
17992;DHT22;9121;50.926;5.340;2022-09-09T03:48:28;16.90;99.90
17992;DHT22;9121;50.926;5.340;2022-09-09T03:50:56;16.80;99.90
17992;DHT22;9121;50.926;5.340;2022-09-09T03:53:27;16.90;99.90
17992;DHT22;9121;50.926;5.340;2022-09-09T03:55:55;16.90;99.90
17992;DHT22;9121;50.926;5.340;2022-09-09T03:58:25;16.90;99.90
17992;DHT22;9121;50.926;5.340;2022-09-09T04:00:56;16.80;99.90
17992;DHT22;9121;50.926;5.340;2022-09-09T04:03:23;16.80;99.90
17992;DHT22;9121;50.926;5.340;2022-09-09T04:05:51;16.80;99.90
17992;DHT22;9121;50.926;5.340;2022-09-09T04:08:20;16.70;99.90
17992;DHT22;9121;50.926;5.340;2022-09-09T04:10:48;16.70;99.90
17992;DHT22;9121;50.926;5.340;2022-09-09T04:13:16;16.70;99.90
17992;DHT22;9121;50.926;5.340;2022-09-09T04:15:43;16.70;99.90
17992;DHT22;9121;50.926;5.340;2022-09-09T04:18:11;16.70;99.90
17992;DHT22;9121;50.926;5.340;2022-09-09T04:20:38;16.70;99.90
17992;DHT22;9121;50.926;5.340;2022-09-09T04:23:05;16.70;99.90
17992;DHT22;9121;50.926;5.340;2022-09-09T04:25:33;16.60;99.90
17992;DHT22;9121;50.926;5.340;2022-09-09T04:28:01;16.70;99.90
17992;DHT22;9121;50.926;5.340;2022-09-09T04:30:28;16.60;99.90
17992;DHT22;9121;50.926;5.340;2022-09-09T04:32:55;16.60;99.90
17992;DHT22;9121;50.926;5.340;2022-09-09T04:35:22;16.60;99.90
17992;DHT22;9121;50.926;5.340;2022-09-09T04:37:49;16.60;99.90
17992;DHT22;9121;50.926;5.340;2022-09-09T04:40:16;16.50;99.90
17992;DHT22;9121;50.926;5.340;2022-09-09T04:42:45;16.60;99.90
17992;DHT22;9121;50.926;5.340;2022-09-09T04:45:13;16.60;99.90
17992;DHT22;9121;50.926;5.340;2022-09-09T04:47:40;16.50;99.90
17992;DHT22;9121;50.926;5.340;2022-09-09T04:50:08;16.50;99.90
17992;DHT22;9121;50.926;5.340;2022-09-09T04:52:35;16.50;99.90
17992;DHT22;9121;50.926;5.340;2022-09-09T04:55:03;16.50;99.90
17992;DHT22;9121;50.926;5.340;2022-09-09T04:57:30;16.50;99.90
17992;DHT22;9121;50.926;5.340;2022-09-09T04:59:59;16.40;99.90
17992;DHT22;9121;50.926;5.340;2022-09-09T05:02:28;16.40;99.90
17992;DHT22;9121;50.926;5.340;2022-09-09T05:04:55;16.40;99.90
17992;DHT22;9121;50.926;5.340;2022-09-09T05:07:22;16.40;99.90
17992;DHT22;9121;50.926;5.340;2022-09-09T05:09:49;16.40;99.90
17992;DHT22;9121;50.926;5.340;2022-09-09T05:12:16;16.50;99.90
17992;DHT22;9121;50.926;5.340;2022-09-09T05:14:43;16.50;99.90
17992;DHT22;9121;50.926;5.340;2022-09-09T05:17:11;16.60;99.90
17992;DHT22;9121;50.926;5.340;2022-09-09T05:19:38;16.60;99.90
17992;DHT22;9121;50.926;5.340;2022-09-09T05:22:05;16.60;99.90
17992;DHT22;9121;50.926;5.340;2022-09-09T05:24:33;16.60;99.90
17992;DHT22;9121;50.926;5.340;2022-09-09T05:27:00;16.60;99.90
17992;DHT22;9121;50.926;5.340;2022-09-09T05:29:28;16.70;99.90
17992;DHT22;9121;50.926;5.340;2022-09-09T05:31:55;16.70;99.90
17992;DHT22;9121;50.926;5.340;2022-09-09T05:34:23;16.70;99.90
17992;DHT22;9121;50.926;5.340;2022-09-09T05:36:50;16.70;99.90
17992;DHT22;9121;50.926;5.340;2022-09-09T05:39:17;16.70;99.90
17992;DHT22;9121;50.926;5.340;2022-09-09T05:41:44;16.80;99.90
17992;DHT22;9121;50.926;5.340;2022-09-09T05:44:11;16.80;99.90
17992;DHT22;9121;50.926;5.340;2022-09-09T05:46:39;16.80;99.90
17992;DHT22;9121;50.926;5.340;2022-09-09T05:49:08;16.80;99.90
17992;DHT22;9121;50.926;5.340;2022-09-09T05:51:37;16.80;99.90
17992;DHT22;9121;50.926;5.340;2022-09-09T05:54:04;16.80;99.90
17992;DHT22;9121;50.926;5.340;2022-09-09T05:56:31;16.90;99.90
17992;DHT22;9121;50.926;5.340;2022-09-09T05:58:58;17.00;99.90
17992;DHT22;9121;50.926;5.340;2022-09-09T06:01:27;17.00;99.90
17992;DHT22;9121;50.926;5.340;2022-09-09T06:03:55;17.00;99.90
17992;DHT22;9121;50.926;5.340;2022-09-09T06:06:23;17.10;99.90
17992;DHT22;9121;50.926;5.340;2022-09-09T06:08:54;17.10;99.90
17992;DHT22;9121;50.926;5.340;2022-09-09T06:11:23;17.20;99.90
17992;DHT22;9121;50.926;5.340;2022-09-09T06:13:52;17.20;99.90
17992;DHT22;9121;50.926;5.340;2022-09-09T06:16:21;17.20;99.90
17992;DHT22;9121;50.926;5.340;2022-09-09T06:18:50;17.20;99.90
17992;DHT22;9121;50.926;5.340;2022-09-09T06:21:18;17.20;99.90
17992;DHT22;9121;50.926;5.340;2022-09-09T06:23:46;17.20;99.90
17992;DHT22;9121;50.926;5.340;2022-09-09T06:26:16;17.20;99.90
17992;DHT22;9121;50.926;5.340;2022-09-09T06:28:45;17.20;99.90
17992;DHT22;9121;50.926;5.340;2022-09-09T06:31:14;17.30;99.90
17992;DHT22;9121;50.926;5.340;2022-09-09T06:33:43;17.40;99.90
17992;DHT22;9121;50.926;5.340;2022-09-09T06:36:12;17.30;99.90
17992;DHT22;9121;50.926;5.340;2022-09-09T06:38:40;17.30;99.90
17992;DHT22;9121;50.926;5.340;2022-09-09T06:41:08;17.30;99.90
17992;DHT22;9121;50.926;5.340;2022-09-09T06:43:36;17.30;99.90
17992;DHT22;9121;50.926;5.340;2022-09-09T06:46:05;17.40;99.90
17992;DHT22;9121;50.926;5.340;2022-09-09T06:48:33;17.60;99.90
17992;DHT22;9121;50.926;5.340;2022-09-09T06:51:03;17.70;99.90
17992;DHT22;9121;50.926;5.340;2022-09-09T06:53:31;17.80;99.90
17992;DHT22;9121;50.926;5.340;2022-09-09T06:55:59;17.80;99.90
17992;DHT22;9121;50.926;5.340;2022-09-09T06:58:26;17.90;99.90
17992;DHT22;9121;50.926;5.340;2022-09-09T07:01:03;18.00;99.90
17992;DHT22;9121;50.926;5.340;2022-09-09T07:03:30;18.10;99.90
17992;DHT22;9121;50.926;5.340;2022-09-09T07:05:57;18.10;99.90
17992;DHT22;9121;50.926;5.340;2022-09-09T07:08:24;17.90;99.90
17992;DHT22;9121;50.926;5.340;2022-09-09T07:10:52;17.90;99.90
17992;DHT22;9121;50.926;5.340;2022-09-09T07:13:19;17.90;99.90
17992;DHT22;9121;50.926;5.340;2022-09-09T07:15:50;17.90;99.90
17992;DHT22;9121;50.926;5.340;2022-09-09T07:18:18;17.90;99.90
17992;DHT22;9121;50.926;5.340;2022-09-09T07:20:52;17.90;99.90
17992;DHT22;9121;50.926;5.340;2022-09-09T07:23:19;17.90;99.90
17992;DHT22;9121;50.926;5.340;2022-09-09T07:25:46;17.90;99.90
17992;DHT22;9121;50.926;5.340;2022-09-09T07:28:14;17.90;99.90
17992;DHT22;9121;50.926;5.340;2022-09-09T07:30:41;17.80;99.90
17992;DHT22;9121;50.926;5.340;2022-09-09T07:33:08;18.00;99.90
17992;DHT22;9121;50.926;5.340;2022-09-09T07:35:37;18.10;99.90
17992;DHT22;9121;50.926;5.340;2022-09-09T07:38:04;18.20;99.90
17992;DHT22;9121;50.926;5.340;2022-09-09T07:40:32;18.20;99.90
17992;DHT22;9121;50.926;5.340;2022-09-09T07:42:59;18.30;99.90
17992;DHT22;9121;50.926;5.340;2022-09-09T07:45:26;18.50;99.90
17992;DHT22;9121;50.926;5.340;2022-09-09T07:47:54;18.60;99.90
17992;DHT22;9121;50.926;5.340;2022-09-09T07:50:22;18.70;99.90
17992;DHT22;9121;50.926;5.340;2022-09-09T07:52:51;18.70;99.90
17992;DHT22;9121;50.926;5.340;2022-09-09T07:55:19;18.80;99.90
17992;DHT22;9121;50.926;5.340;2022-09-09T07:57:46;18.80;99.90
17992;DHT22;9121;50.926;5.340;2022-09-09T08:00:14;18.80;99.90
17992;DHT22;9121;50.926;5.340;2022-09-09T08:02:41;18.80;99.90
17992;DHT22;9121;50.926;5.340;2022-09-09T08:05:08;18.60;99.90
17992;DHT22;9121;50.926;5.340;2022-09-09T08:07:35;18.60;99.90
17992;DHT22;9121;50.926;5.340;2022-09-09T08:10:04;18.50;99.90
17992;DHT22;9121;50.926;5.340;2022-09-09T08:12:32;18.40;99.90
17992;DHT22;9121;50.926;5.340;2022-09-09T08:14:59;18.40;99.90
17992;DHT22;9121;50.926;5.340;2022-09-09T08:17:26;18.40;99.90
17992;DHT22;9121;50.926;5.340;2022-09-09T08:19:53;18.50;99.90
17992;DHT22;9121;50.926;5.340;2022-09-09T08:22:20;18.50;99.90
17992;DHT22;9121;50.926;5.340;2022-09-09T08:24:47;18.50;99.90
17992;DHT22;9121;50.926;5.340;2022-09-09T08:27:15;18.50;99.90
17992;DHT22;9121;50.926;5.340;2022-09-09T08:29:42;18.50;99.90
17992;DHT22;9121;50.926;5.340;2022-09-09T08:32:10;18.50;99.90
17992;DHT22;9121;50.926;5.340;2022-09-09T08:34:36;18.40;99.90
17992;DHT22;9121;50.926;5.340;2022-09-09T08:37:03;18.40;99.90
17992;DHT22;9121;50.926;5.340;2022-09-09T08:39:30;18.30;99.90
17992;DHT22;9121;50.926;5.340;2022-09-09T08:42:18;18.40;99.90
17992;DHT22;9121;50.926;5.340;2022-09-09T08:45:00;18.40;99.90
17992;DHT22;9121;50.926;5.340;2022-09-09T08:47:37;18.40;99.90
17992;DHT22;9121;50.926;5.340;2022-09-09T08:50:18;18.50;99.90
17992;DHT22;9121;50.926;5.340;2022-09-09T08:52:53;18.40;99.90
17992;DHT22;9121;50.926;5.340;2022-09-09T08:55:25;18.40;99.90
17992;DHT22;9121;50.926;5.340;2022-09-09T08:57:57;18.30;99.90
17992;DHT22;9121;50.926;5.340;2022-09-09T09:00:30;18.30;99.90
17992;DHT22;9121;50.926;5.340;2022-09-09T09:03:06;18.30;99.90
17992;DHT22;9121;50.926;5.340;2022-09-09T09:05:41;18.30;99.90
17992;DHT22;9121;50.926;5.340;2022-09-09T09:08:17;18.40;99.90
17992;DHT22;9121;50.926;5.340;2022-09-09T09:10:50;18.30;99.90
17992;DHT22;9121;50.926;5.340;2022-09-09T09:13:24;18.30;99.90
17992;DHT22;9121;50.926;5.340;2022-09-09T09:15:56;18.30;99.90
17992;DHT22;9121;50.926;5.340;2022-09-09T09:18:26;18.30;99.90
17992;DHT22;9121;50.926;5.340;2022-09-09T09:21:00;18.30;99.90
17992;DHT22;9121;50.926;5.340;2022-09-09T09:23:37;18.30;99.90
17992;DHT22;9121;50.926;5.340;2022-09-09T09:26:07;18.40;99.90
17992;DHT22;9121;50.926;5.340;2022-09-09T09:28:38;18.50;99.90
17992;DHT22;9121;50.926;5.340;2022-09-09T09:31:08;18.50;99.90
17992;DHT22;9121;50.926;5.340;2022-09-09T09:33:42;18.70;99.90
17992;DHT22;9121;50.926;5.340;2022-09-09T09:36:12;18.80;99.90
17992;DHT22;9121;50.926;5.340;2022-09-09T09:38:52;18.80;99.90
17992;DHT22;9121;50.926;5.340;2022-09-09T09:41:29;18.80;99.90
17992;DHT22;9121;50.926;5.340;2022-09-09T09:43:58;19.00;99.90
17992;DHT22;9121;50.926;5.340;2022-09-09T09:46:26;19.10;99.90
17992;DHT22;9121;50.926;5.340;2022-09-09T09:48:57;19.10;99.90
17992;DHT22;9121;50.926;5.340;2022-09-09T09:51:25;19.20;99.90
17992;DHT22;9121;50.926;5.340;2022-09-09T09:53:53;19.40;99.90
17992;DHT22;9121;50.926;5.340;2022-09-09T09:56:27;19.30;99.90
17992;DHT22;9121;50.926;5.340;2022-09-09T09:58:55;19.20;99.90
17992;DHT22;9121;50.926;5.340;2022-09-09T10:01:26;19.00;99.90
17992;DHT22;9121;50.926;5.340;2022-09-09T10:03:57;18.90;99.90
17992;DHT22;9121;50.926;5.340;2022-09-09T10:06:32;18.90;99.90
17992;DHT22;9121;50.926;5.340;2022-09-09T10:09:00;18.80;99.90
17992;DHT22;9121;50.926;5.340;2022-09-09T10:11:37;18.70;99.90
17992;DHT22;9121;50.926;5.340;2022-09-09T10:14:15;18.60;99.90
17992;DHT22;9121;50.926;5.340;2022-09-09T10:16:57;18.60;99.90
17992;DHT22;9121;50.926;5.340;2022-09-09T10:19:30;18.70;99.90
17992;DHT22;9121;50.926;5.340;2022-09-09T10:22:08;18.60;99.90
17992;DHT22;9121;50.926;5.340;2022-09-09T10:25:02;18.10;99.90
17992;DHT22;9121;50.926;5.340;2022-09-09T10:27:38;17.80;99.90
17992;DHT22;9121;50.926;5.340;2022-09-09T10:30:13;17.60;99.90
17992;DHT22;9121;50.926;5.340;2022-09-09T10:32:48;17.50;99.90
17992;DHT22;9121;50.926;5.340;2022-09-09T10:35:31;17.30;99.90
17992;DHT22;9121;50.926;5.340;2022-09-09T10:38:12;17.20;99.90
17992;DHT22;9121;50.926;5.340;2022-09-09T10:43:47;17.00;99.90
17992;DHT22;9121;50.926;5.340;2022-09-09T10:46:20;16.90;99.90
17992;DHT22;9121;50.926;5.340;2022-09-09T10:49:00;16.90;99.90
17992;DHT22;9121;50.926;5.340;2022-09-09T10:51:36;17.00;99.90
17992;DHT22;9121;50.926;5.340;2022-09-09T10:54:28;17.10;99.90
17992;DHT22;9121;50.926;5.340;2022-09-09T10:57:00;17.30;99.90
17992;DHT22;9121;50.926;5.340;2022-09-09T10:59:30;17.50;99.90
17992;DHT22;9121;50.926;5.340;2022-09-09T11:02:01;17.80;99.90
17992;DHT22;9121;50.926;5.340;2022-09-09T11:04:38;18.10;99.90
17992;DHT22;9121;50.926;5.340;2022-09-09T11:07:10;18.20;99.90
17992;DHT22;9121;50.926;5.340;2022-09-09T11:09:42;18.30;99.90
17992;DHT22;9121;50.926;5.340;2022-09-09T11:12:15;18.40;99.90
17992;DHT22;9121;50.926;5.340;2022-09-09T11:14:48;18.30;99.90
17992;DHT22;9121;50.926;5.340;2022-09-09T11:17:18;18.20;99.90
17992;DHT22;9121;50.926;5.340;2022-09-09T11:19:48;18.30;99.90
17992;DHT22;9121;50.926;5.340;2022-09-09T11:22:21;18.40;99.90
17992;DHT22;9121;50.926;5.340;2022-09-09T11:24:53;18.40;99.90
17992;DHT22;9121;50.926;5.340;2022-09-09T11:27:26;18.60;99.90
17992;DHT22;9121;50.926;5.340;2022-09-09T11:30:18;18.80;99.90
17992;DHT22;9121;50.926;5.340;2022-09-09T11:33:24;18.90;99.90
17992;DHT22;9121;50.926;5.340;2022-09-09T11:36:21;18.90;99.90
17992;DHT22;9121;50.926;5.340;2022-09-09T11:38:56;18.90;99.90
17992;DHT22;9121;50.926;5.340;2022-09-09T11:41:34;19.00;99.90
17992;DHT22;9121;50.926;5.340;2022-09-09T11:44:10;19.10;99.90
17992;DHT22;9121;50.926;5.340;2022-09-09T11:46:39;19.30;99.90
17992;DHT22;9121;50.926;5.340;2022-09-09T11:49:26;19.30;99.90
17992;DHT22;9121;50.926;5.340;2022-09-09T11:51:55;19.30;99.90
17992;DHT22;9121;50.926;5.340;2022-09-09T11:54:30;19.30;99.90
17992;DHT22;9121;50.926;5.340;2022-09-09T11:56:58;19.10;99.90
17992;DHT22;9121;50.926;5.340;2022-09-09T11:59:26;18.90;99.90
17992;DHT22;9121;50.926;5.340;2022-09-09T12:01:56;18.80;99.90
17992;DHT22;9121;50.926;5.340;2022-09-09T12:04:35;18.70;99.90
17992;DHT22;9121;50.926;5.340;2022-09-09T12:07:30;18.70;99.90
17992;DHT22;9121;50.926;5.340;2022-09-09T12:10:00;18.50;99.90
17992;DHT22;9121;50.926;5.340;2022-09-09T12:12:30;18.30;99.90
17992;DHT22;9121;50.926;5.340;2022-09-09T12:15:01;18.20;99.90
17992;DHT22;9121;50.926;5.340;2022-09-09T12:17:30;18.00;99.90
17992;DHT22;9121;50.926;5.340;2022-09-09T12:20:03;17.80;99.90
17992;DHT22;9121;50.926;5.340;2022-09-09T12:22:40;17.50;99.90
17992;DHT22;9121;50.926;5.340;2022-09-09T12:25:18;17.40;99.90
17992;DHT22;9121;50.926;5.340;2022-09-09T12:28:09;17.40;99.90
17992;DHT22;9121;50.926;5.340;2022-09-09T12:30:43;17.50;99.90
17992;DHT22;9121;50.926;5.340;2022-09-09T12:33:16;17.60;99.90
17992;DHT22;9121;50.926;5.340;2022-09-09T12:35:47;17.90;99.90
17992;DHT22;9121;50.926;5.340;2022-09-09T12:38:22;18.60;99.90
17992;DHT22;9121;50.926;5.340;2022-09-09T12:40:55;19.20;99.90
17992;DHT22;9121;50.926;5.340;2022-09-09T12:43:24;19.50;99.90
17992;DHT22;9121;50.926;5.340;2022-09-09T12:45:54;19.60;99.90
17992;DHT22;9121;50.926;5.340;2022-09-09T12:48:31;19.80;99.90
17992;DHT22;9121;50.926;5.340;2022-09-09T12:50:59;20.10;99.90
17992;DHT22;9121;50.926;5.340;2022-09-09T12:53:31;20.60;99.90
17992;DHT22;9121;50.926;5.340;2022-09-09T12:56:02;21.10;99.90
17992;DHT22;9121;50.926;5.340;2022-09-09T12:58:31;21.10;99.90
17992;DHT22;9121;50.926;5.340;2022-09-09T13:01:01;20.90;99.90
17992;DHT22;9121;50.926;5.340;2022-09-09T13:03:30;21.00;99.90
17992;DHT22;9121;50.926;5.340;2022-09-09T13:05:58;21.30;99.90
17992;DHT22;9121;50.926;5.340;2022-09-09T13:08:26;21.60;99.90
17992;DHT22;9121;50.926;5.340;2022-09-09T13:10:57;21.80;99.90
17992;DHT22;9121;50.926;5.340;2022-09-09T13:13:27;21.80;99.90
17992;DHT22;9121;50.926;5.340;2022-09-09T13:15:57;22.00;99.90
17992;DHT22;9121;50.926;5.340;2022-09-09T13:18:28;22.00;99.90
17992;DHT22;9121;50.926;5.340;2022-09-09T13:20:56;22.10;99.90
17992;DHT22;9121;50.926;5.340;2022-09-09T13:23:27;21.80;99.90
17992;DHT22;9121;50.926;5.340;2022-09-09T13:25:58;21.80;99.90
17992;DHT22;9121;50.926;5.340;2022-09-09T13:28:27;21.60;99.90
17992;DHT22;9121;50.926;5.340;2022-09-09T13:30:56;21.80;99.90
17992;DHT22;9121;50.926;5.340;2022-09-09T13:33:30;21.70;99.90
17992;DHT22;9121;50.926;5.340;2022-09-09T13:36:00;21.60;99.90
17992;DHT22;9121;50.926;5.340;2022-09-09T13:38:31;21.30;99.90
17992;DHT22;9121;50.926;5.340;2022-09-09T13:41:01;21.00;99.90
17992;DHT22;9121;50.926;5.340;2022-09-09T13:43:31;21.10;99.90
17992;DHT22;9121;50.926;5.340;2022-09-09T13:46:02;21.00;99.90
17992;DHT22;9121;50.926;5.340;2022-09-09T13:48:29;21.10;99.90
17992;DHT22;9121;50.926;5.340;2022-09-09T13:50:59;21.50;99.90
17992;DHT22;9121;50.926;5.340;2022-09-09T13:53:26;21.60;99.90
17992;DHT22;9121;50.926;5.340;2022-09-09T13:55:54;21.40;99.90
17992;DHT22;9121;50.926;5.340;2022-09-09T13:58:23;21.70;99.90
17992;DHT22;9121;50.926;5.340;2022-09-09T14:00:52;22.70;99.90
17992;DHT22;9121;50.926;5.340;2022-09-09T14:03:19;22.30;99.90
17992;DHT22;9121;50.926;5.340;2022-09-09T14:05:46;22.00;99.90
17992;DHT22;9121;50.926;5.340;2022-09-09T14:08:23;21.70;99.90
17992;DHT22;9121;50.926;5.340;2022-09-09T14:10:50;21.60;99.90
17992;DHT22;9121;50.926;5.340;2022-09-09T14:13:18;21.70;99.90
17992;DHT22;9121;50.926;5.340;2022-09-09T14:15:49;22.00;99.90
17992;DHT22;9121;50.926;5.340;2022-09-09T14:18:16;22.30;99.90
17992;DHT22;9121;50.926;5.340;2022-09-09T14:20:44;22.00;99.90
17992;DHT22;9121;50.926;5.340;2022-09-09T14:23:11;22.00;99.90
17992;DHT22;9121;50.926;5.340;2022-09-09T14:25:40;22.20;99.90
17992;DHT22;9121;50.926;5.340;2022-09-09T14:28:10;23.40;99.90
17992;DHT22;9121;50.926;5.340;2022-09-09T14:30:38;23.80;99.90
17992;DHT22;9121;50.926;5.340;2022-09-09T14:33:07;23.10;99.90
17992;DHT22;9121;50.926;5.340;2022-09-09T14:35:33;22.50;99.90
17992;DHT22;9121;50.926;5.340;2022-09-09T14:38:02;22.30;99.90
17992;DHT22;9121;50.926;5.340;2022-09-09T14:40:29;22.60;99.90
17992;DHT22;9121;50.926;5.340;2022-09-09T14:42:56;23.00;99.90
17992;DHT22;9121;50.926;5.340;2022-09-09T14:45:24;24.00;99.90
17992;DHT22;9121;50.926;5.340;2022-09-09T14:47:52;24.40;99.90
17992;DHT22;9121;50.926;5.340;2022-09-09T14:50:22;25.20;99.90
17992;DHT22;9121;50.926;5.340;2022-09-09T14:52:49;25.50;99.90
17992;DHT22;9121;50.926;5.340;2022-09-09T14:55:17;25.60;99.90
17992;DHT22;9121;50.926;5.340;2022-09-09T14:57:45;25.50;99.90
17992;DHT22;9121;50.926;5.340;2022-09-09T15:00:12;25.10;99.90
17992;DHT22;9121;50.926;5.340;2022-09-09T15:02:39;24.60;99.90
17992;DHT22;9121;50.926;5.340;2022-09-09T15:05:07;23.90;99.90
17992;DHT22;9121;50.926;5.340;2022-09-09T15:07:36;23.50;99.90
17992;DHT22;9121;50.926;5.340;2022-09-09T15:10:04;22.80;99.90
17992;DHT22;9121;50.926;5.340;2022-09-09T15:12:32;22.20;99.90
17992;DHT22;9121;50.926;5.340;2022-09-09T15:15:01;21.90;99.90
17992;DHT22;9121;50.926;5.340;2022-09-09T15:17:28;21.80;99.90
17992;DHT22;9121;50.926;5.340;2022-09-09T15:19:55;21.70;99.90
17992;DHT22;9121;50.926;5.340;2022-09-09T15:22:22;21.50;99.90
17992;DHT22;9121;50.926;5.340;2022-09-09T15:24:51;21.40;99.90
17992;DHT22;9121;50.926;5.340;2022-09-09T15:27:18;21.20;99.90
17992;DHT22;9121;50.926;5.340;2022-09-09T15:29:45;21.20;99.90
17992;DHT22;9121;50.926;5.340;2022-09-09T15:32:12;21.20;99.90
17992;DHT22;9121;50.926;5.340;2022-09-09T15:34:39;21.20;99.90
17992;DHT22;9121;50.926;5.340;2022-09-09T15:37:06;21.10;99.90
17992;DHT22;9121;50.926;5.340;2022-09-09T15:39:36;21.10;99.90
17992;DHT22;9121;50.926;5.340;2022-09-09T15:42:04;21.30;99.90
17992;DHT22;9121;50.926;5.340;2022-09-09T15:44:38;21.20;99.90
17992;DHT22;9121;50.926;5.340;2022-09-09T15:47:05;21.20;99.90
17992;DHT22;9121;50.926;5.340;2022-09-09T15:49:32;21.20;99.90
17992;DHT22;9121;50.926;5.340;2022-09-09T15:52:00;21.30;99.90
17992;DHT22;9121;50.926;5.340;2022-09-09T15:54:31;21.60;99.90
17992;DHT22;9121;50.926;5.340;2022-09-09T15:57:02;21.80;99.90
17992;DHT22;9121;50.926;5.340;2022-09-09T15:59:31;22.00;99.90
17992;DHT22;9121;50.926;5.340;2022-09-09T16:01:59;22.00;99.90
17992;DHT22;9121;50.926;5.340;2022-09-09T16:04:27;21.90;99.90
17992;DHT22;9121;50.926;5.340;2022-09-09T16:06:55;21.80;99.90
17992;DHT22;9121;50.926;5.340;2022-09-09T16:09:24;21.50;99.90
17992;DHT22;9121;50.926;5.340;2022-09-09T16:11:51;21.30;99.90